sensor_id;sensor_type;location;lat;lon;timestamp;pressure;altitude;pressure_sealevel;temperature;humidity
66627;BME280;53498;50.422;14.912;2022-08-19T00:00:36;98174.41;;;24.49;52.13
66627;BME280;53498;50.422;14.912;2022-08-19T00:03:05;98168.88;;;24.39;51.90
66627;BME280;53498;50.422;14.912;2022-08-19T00:05:31;98172.31;;;24.41;52.02
66627;BME280;53498;50.422;14.912;2022-08-19T00:08:00;98171.34;;;24.42;51.89
66627;BME280;53498;50.422;14.912;2022-08-19T00:10:26;98179.19;;;24.44;51.69
66627;BME280;53498;50.422;14.912;2022-08-19T00:12:52;98181.13;;;24.42;51.71
66627;BME280;53498;50.422;14.912;2022-08-19T00:15:19;98179.50;;;24.39;51.08
66627;BME280;53498;50.422;14.912;2022-08-19T00:17:48;98178.88;;;24.36;51.23
66627;BME280;53498;50.422;14.912;2022-08-19T00:20:16;98183.44;;;24.34;51.49
66627;BME280;53498;50.422;14.912;2022-08-19T00:22:44;98178.31;;;24.31;51.38
66627;BME280;53498;50.422;14.912;2022-08-19T00:25:10;98175.66;;;24.31;51.27
66627;BME280;53498;50.422;14.912;2022-08-19T00:27:36;98165.56;;;24.36;51.12
66627;BME280;53498;50.422;14.912;2022-08-19T00:30:04;98172.25;;;24.29;51.64
66627;BME280;53498;50.422;14.912;2022-08-19T00:32:29;98171.13;;;24.20;51.58
66627;BME280;53498;50.422;14.912;2022-08-19T00:34:55;98176.22;;;24.23;51.76
66627;BME280;53498;50.422;14.912;2022-08-19T00:37:26;98165.69;;;24.09;52.13
66627;BME280;53498;50.422;14.912;2022-08-19T00:39:53;98165.47;;;24.12;51.95
66627;BME280;53498;50.422;14.912;2022-08-19T00:42:20;98160.06;;;24.13;52.03
66627;BME280;53498;50.422;14.912;2022-08-19T00:44:46;98155.19;;;24.07;52.16
66627;BME280;53498;50.422;14.912;2022-08-19T00:47:12;98150.09;;;24.04;52.38
66627;BME280;53498;50.422;14.912;2022-08-19T00:49:43;98136.69;;;23.93;52.66
66627;BME280;53498;50.422;14.912;2022-08-19T00:52:14;98141.78;;;23.83;53.13
66627;BME280;53498;50.422;14.912;2022-08-19T00:54:41;98135.09;;;23.77;53.47
66627;BME280;53498;50.422;14.912;2022-08-19T00:57:12;98143.47;;;23.71;53.45
66627;BME280;53498;50.422;14.912;2022-08-19T00:59:41;98150.53;;;23.58;53.90
66627;BME280;53498;50.422;14.912;2022-08-19T01:02:11;98148.63;;;23.47;54.39
66627;BME280;53498;50.422;14.912;2022-08-19T01:04:36;98157.53;;;23.46;54.41
66627;BME280;53498;50.422;14.912;2022-08-19T01:07:02;98152.75;;;23.39;55.06
66627;BME280;53498;50.422;14.912;2022-08-19T01:09:28;98155.84;;;23.18;55.73
66627;BME280;53498;50.422;14.912;2022-08-19T01:11:55;98159.16;;;23.22;55.87
66627;BME280;53498;50.422;14.912;2022-08-19T01:14:22;98156.41;;;23.23;56.00
66627;BME280;53498;50.422;14.912;2022-08-19T01:16:48;98155.41;;;23.12;56.66
66627;BME280;53498;50.422;14.912;2022-08-19T01:19:29;98165.53;;;23.19;56.50
66627;BME280;53498;50.422;14.912;2022-08-19T01:22:00;98165.75;;;23.16;57.31
66627;BME280;53498;50.422;14.912;2022-08-19T01:24:27;98172.38;;;23.09;57.60
66627;BME280;53498;50.422;14.912;2022-08-19T01:26:53;98174.59;;;23.02;58.25
66627;BME280;53498;50.422;14.912;2022-08-19T01:29:18;98179.81;;;23.04;58.40
66627;BME280;53498;50.422;14.912;2022-08-19T01:31:44;98190.50;;;23.02;58.51
66627;BME280;53498;50.422;14.912;2022-08-19T01:34:09;98178.00;;;22.90;59.36
66627;BME280;53498;50.422;14.912;2022-08-19T01:36:41;98196.88;;;22.85;59.48
66627;BME280;53498;50.422;14.912;2022-08-19T01:39:11;98203.72;;;22.75;59.86
66627;BME280;53498;50.422;14.912;2022-08-19T01:41:38;98206.47;;;22.59;60.60
66627;BME280;53498;50.422;14.912;2022-08-19T01:44:05;98203.72;;;22.47;61.16
66627;BME280;53498;50.422;14.912;2022-08-19T01:46:31;98191.53;;;22.44;61.24
66627;BME280;53498;50.422;14.912;2022-08-19T01:48:58;98197.03;;;22.41;61.83
66627;BME280;53498;50.422;14.912;2022-08-19T01:51:24;98198.72;;;22.42;61.90
66627;BME280;53498;50.422;14.912;2022-08-19T01:53:51;98201.84;;;22.34;62.26
66627;BME280;53498;50.422;14.912;2022-08-19T01:56:17;98208.00;;;22.35;62.12
66627;BME280;53498;50.422;14.912;2022-08-19T01:59:20;98206.94;;;22.37;62.28
66627;BME280;53498;50.422;14.912;2022-08-19T02:01:39;98207.03;;;22.36;62.17
66627;BME280;53498;50.422;14.912;2022-08-19T02:04:04;98203.56;;;22.35;62.60
66627;BME280;53498;50.422;14.912;2022-08-19T02:06:31;98200.91;;;22.35;62.76
66627;BME280;53498;50.422;14.912;2022-08-19T02:08:58;98202.03;;;22.31;63.07
66627;BME280;53498;50.422;14.912;2022-08-19T02:11:30;98201.84;;;22.34;63.13
66627;BME280;53498;50.422;14.912;2022-08-19T02:13:57;98217.44;;;22.25;63.79
66627;BME280;53498;50.422;14.912;2022-08-19T02:16:23;98216.59;;;22.24;64.38
66627;BME280;53498;50.422;14.912;2022-08-19T02:18:49;98210.44;;;22.24;64.36
66627;BME280;53498;50.422;14.912;2022-08-19T02:21:19;98207.31;;;22.17;65.47
66627;BME280;53498;50.422;14.912;2022-08-19T02:23:47;98216.66;;;22.08;66.95
66627;BME280;53498;50.422;14.912;2022-08-19T02:26:13;98228.97;;;22.09;67.09
66627;BME280;53498;50.422;14.912;2022-08-19T02:28:40;98229.03;;;22.08;67.79
66627;BME280;53498;50.422;14.912;2022-08-19T02:31:13;98231.31;;;22.14;68.33
66627;BME280;53498;50.422;14.912;2022-08-19T02:33:46;98251.56;;;22.15;68.18
66627;BME280;53498;50.422;14.912;2022-08-19T02:36:13;98241.91;;;22.14;69.19
66627;BME280;53498;50.422;14.912;2022-08-19T02:38:39;98235.09;;;22.10;69.62
66627;BME280;53498;50.422;14.912;2022-08-19T02:41:16;98253.06;;;22.05;70.37
66627;BME280;53498;50.422;14.912;2022-08-19T02:43:43;98240.41;;;22.10;70.08
66627;BME280;53498;50.422;14.912;2022-08-19T02:46:13;98250.53;;;22.03;70.80
66627;BME280;53498;50.422;14.912;2022-08-19T02:48:39;98248.91;;;22.01;71.56
66627;BME280;53498;50.422;14.912;2022-08-19T02:51:05;98241.13;;;21.98;72.27
66627;BME280;53498;50.422;14.912;2022-08-19T02:53:30;98261.72;;;21.92;72.42
66627;BME280;53498;50.422;14.912;2022-08-19T02:56:06;98253.97;;;21.89;73.00
66627;BME280;53498;50.422;14.912;2022-08-19T02:58:32;98262.94;;;21.87;73.29
66627;BME280;53498;50.422;14.912;2022-08-19T03:00:58;98261.34;;;21.84;73.85
66627;BME280;53498;50.422;14.912;2022-08-19T03:03:23;98267.56;;;21.83;73.92
66627;BME280;53498;50.422;14.912;2022-08-19T03:05:49;98267.00;;;21.78;74.68
66627;BME280;53498;50.422;14.912;2022-08-19T03:08:15;98265.28;;;21.77;74.67
66627;BME280;53498;50.422;14.912;2022-08-19T03:10:43;98264.06;;;21.83;74.37
66627;BME280;53498;50.422;14.912;2022-08-19T03:13:11;98268.16;;;21.88;73.64
66627;BME280;53498;50.422;14.912;2022-08-19T03:15:42;98274.19;;;21.90;73.48
66627;BME280;53498;50.422;14.912;2022-08-19T03:18:08;98280.81;;;21.83;73.71
66627;BME280;53498;50.422;14.912;2022-08-19T03:20:49;98283.63;;;21.80;73.71
66627;BME280;53498;50.422;14.912;2022-08-19T03:23:16;98295.06;;;21.81;73.54
66627;BME280;53498;50.422;14.912;2022-08-19T03:25:45;98286.81;;;21.71;74.31
66627;BME280;53498;50.422;14.912;2022-08-19T03:28:14;98276.81;;;21.76;73.82
66627;BME280;53498;50.422;14.912;2022-08-19T03:30:41;98283.41;;;21.69;74.19
66627;BME280;53498;50.422;14.912;2022-08-19T03:33:08;98281.78;;;21.66;74.30
66627;BME280;53498;50.422;14.912;2022-08-19T03:35:34;98273.53;;;21.57;74.86
66627;BME280;53498;50.422;14.912;2022-08-19T03:38:03;98271.81;;;21.56;74.83
66627;BME280;53498;50.422;14.912;2022-08-19T03:40:29;98284.66;;;21.47;75.30
66627;BME280;53498;50.422;14.912;2022-08-19T03:42:56;98289.94;;;21.47;75.17
66627;BME280;53498;50.422;14.912;2022-08-19T03:45:22;98288.22;;;21.46;75.10
66627;BME280;53498;50.422;14.912;2022-08-19T03:47:48;98293.69;;;21.43;75.17
66627;BME280;53498;50.422;14.912;2022-08-19T03:50:14;98288.75;;;21.37;75.46
66627;BME280;53498;50.422;14.912;2022-08-19T03:52:40;98298.25;;;21.24;76.38
66627;BME280;53498;50.422;14.912;2022-08-19T03:55:06;98298.09;;;21.27;76.62
66627;BME280;53498;50.422;14.912;2022-08-19T03:57:33;98305.44;;;21.22;77.40
66627;BME280;53498;50.422;14.912;2022-08-19T04:00:00;98307.50;;;21.17;77.72
66627;BME280;53498;50.422;14.912;2022-08-19T04:02:25;98305.00;;;21.14;78.12
66627;BME280;53498;50.422;14.912;2022-08-19T04:04:53;98288.19;;;20.99;79.37
66627;BME280;53498;50.422;14.912;2022-08-19T04:07:19;98283.25;;;21.09;79.42
66627;BME280;53498;50.422;14.912;2022-08-19T04:09:47;98284.81;;;21.13;79.52
66627;BME280;53498;50.422;14.912;2022-08-19T04:12:13;98293.25;;;21.19;79.37
66627;BME280;53498;50.422;14.912;2022-08-19T04:14:50;98291.28;;;21.23;79.69
66627;BME280;53498;50.422;14.912;2022-08-19T04:17:15;98291.88;;;21.28;79.40
66627;BME280;53498;50.422;14.912;2022-08-19T04:19:41;98295.22;;;21.32;79.79
66627;BME280;53498;50.422;14.912;2022-08-19T04:22:08;98289.25;;;21.28;79.76
66627;BME280;53498;50.422;14.912;2022-08-19T04:24:35;98276.75;;;21.30;79.96
66627;BME280;53498;50.422;14.912;2022-08-19T04:27:01;98285.16;;;21.38;79.77
66627;BME280;53498;50.422;14.912;2022-08-19T04:29:31;98284.47;;;21.51;79.23
66627;BME280;53498;50.422;14.912;2022-08-19T04:31:58;98284.28;;;21.54;78.81
66627;BME280;53498;50.422;14.912;2022-08-19T04:34:26;98288.75;;;21.53;78.55
66627;BME280;53498;50.422;14.912;2022-08-19T04:36:54;98300.41;;;21.49;78.41
66627;BME280;53498;50.422;14.912;2022-08-19T04:39:22;98311.44;;;21.41;78.37
66627;BME280;53498;50.422;14.912;2022-08-19T04:42:08;98307.78;;;21.44;78.24
66627;BME280;53498;50.422;14.912;2022-08-19T04:44:52;98301.25;;;21.34;78.36
66627;BME280;53498;50.422;14.912;2022-08-19T04:47:18;98294.63;;;21.42;77.85
66627;BME280;53498;50.422;14.912;2022-08-19T04:49:43;98304.88;;;21.48;78.89
66627;BME280;53498;50.422;14.912;2022-08-19T04:52:09;98317.91;;;21.52;78.58
66627;BME280;53498;50.422;14.912;2022-08-19T04:54:34;98314.66;;;21.46;79.21
66627;BME280;53498;50.422;14.912;2022-08-19T04:57:00;98317.69;;;21.40;79.25
66627;BME280;53498;50.422;14.912;2022-08-19T04:59:25;98327.16;;;21.44;79.19
66627;BME280;53498;50.422;14.912;2022-08-19T05:01:51;98337.22;;;21.38;79.50
66627;BME280;53498;50.422;14.912;2022-08-19T05:04:20;98336.22;;;21.40;79.52
66627;BME280;53498;50.422;14.912;2022-08-19T05:06:47;98340.97;;;21.49;79.49
66627;BME280;53498;50.422;14.912;2022-08-19T05:09:15;98340.78;;;21.53;79.35
66627;BME280;53498;50.422;14.912;2022-08-19T05:11:42;98349.06;;;21.46;79.34
66627;BME280;53498;50.422;14.912;2022-08-19T05:14:09;98367.63;;;21.62;78.75
66627;BME280;53498;50.422;14.912;2022-08-19T05:16:35;98360.22;;;21.83;78.57
66627;BME280;53498;50.422;14.912;2022-08-19T05:19:01;98366.19;;;21.87;78.00
66627;BME280;53498;50.422;14.912;2022-08-19T05:21:45;98375.09;;;21.86;78.23
66627;BME280;53498;50.422;14.912;2022-08-19T05:24:30;98363.97;;;21.95;77.46
66627;BME280;53498;50.422;14.912;2022-08-19T05:26:56;98366.69;;;22.09;77.15
66627;BME280;53498;50.422;14.912;2022-08-19T05:29:23;98377.53;;;22.05;76.99
66627;BME280;53498;50.422;14.912;2022-08-19T05:31:50;98379.06;;;22.09;77.16
66627;BME280;53498;50.422;14.912;2022-08-19T05:34:17;98380.28;;;22.03;77.07
66627;BME280;53498;50.422;14.912;2022-08-19T05:36:44;98379.88;;;21.95;77.42
66627;BME280;53498;50.422;14.912;2022-08-19T05:39:17;98399.34;;;21.94;77.15
66627;BME280;53498;50.422;14.912;2022-08-19T05:41:48;98401.22;;;21.92;77.49
66627;BME280;53498;50.422;14.912;2022-08-19T05:44:15;98413.84;;;22.03;77.07
66627;BME280;53498;50.422;14.912;2022-08-19T05:46:45;98415.50;;;21.89;77.44
66627;BME280;53498;50.422;14.912;2022-08-19T05:49:15;98419.75;;;21.92;77.23
66627;BME280;53498;50.422;14.912;2022-08-19T05:51:42;98421.41;;;21.79;77.78
66627;BME280;53498;50.422;14.912;2022-08-19T05:54:08;98422.09;;;21.82;78.18
66627;BME280;53498;50.422;14.912;2022-08-19T05:56:34;98419.69;;;22.09;76.74
66627;BME280;53498;50.422;14.912;2022-08-19T05:59:05;98413.59;;;22.23;76.09
66627;BME280;53498;50.422;14.912;2022-08-19T06:01:38;98408.03;;;22.58;75.02
66627;BME280;53498;50.422;14.912;2022-08-19T06:04:05;98423.59;;;22.78;73.99
66627;BME280;53498;50.422;14.912;2022-08-19T06:06:32;98420.81;;;22.96;73.67
66627;BME280;53498;50.422;14.912;2022-08-19T06:09:04;98418.63;;;23.02;73.00
66627;BME280;53498;50.422;14.912;2022-08-19T06:11:41;98437.28;;;23.15;72.81
66627;BME280;53498;50.422;14.912;2022-08-19T06:14:12;98435.22;;;23.20;72.40
66627;BME280;53498;50.422;14.912;2022-08-19T06:16:41;98441.00;;;23.27;71.82
66627;BME280;53498;50.422;14.912;2022-08-19T06:19:10;98452.09;;;23.33;71.81
66627;BME280;53498;50.422;14.912;2022-08-19T06:21:37;98455.09;;;23.56;71.66
66627;BME280;53498;50.422;14.912;2022-08-19T06:24:08;98464.22;;;23.52;71.25
66627;BME280;53498;50.422;14.912;2022-08-19T06:26:36;98464.41;;;23.63;71.07
66627;BME280;53498;50.422;14.912;2022-08-19T06:29:04;98461.94;;;23.74;70.86
66627;BME280;53498;50.422;14.912;2022-08-19T06:31:32;98460.59;;;23.82;70.52
66627;BME280;53498;50.422;14.912;2022-08-19T06:34:00;98467.25;;;23.74;70.43
66627;BME280;53498;50.422;14.912;2022-08-19T06:36:32;98485.63;;;23.92;69.94
66627;BME280;53498;50.422;14.912;2022-08-19T06:39:11;98478.25;;;23.83;70.07
66627;BME280;53498;50.422;14.912;2022-08-19T06:41:40;98475.41;;;23.86;69.68
66627;BME280;53498;50.422;14.912;2022-08-19T06:44:07;98486.16;;;24.11;69.60
66627;BME280;53498;50.422;14.912;2022-08-19T06:46:33;98502.22;;;23.95;69.14
66627;BME280;53498;50.422;14.912;2022-08-19T06:48:59;98498.34;;;23.87;70.16
66627;BME280;53498;50.422;14.912;2022-08-19T06:51:25;98495.03;;;23.97;69.23
66627;BME280;53498;50.422;14.912;2022-08-19T06:53:53;98510.44;;;24.19;68.92
66627;BME280;53498;50.422;14.912;2022-08-19T06:56:28;98494.31;;;24.22;68.43
66627;BME280;53498;50.422;14.912;2022-08-19T06:59:01;98500.31;;;24.39;68.35
66627;BME280;53498;50.422;14.912;2022-08-19T07:01:27;98505.50;;;24.40;68.21
66627;BME280;53498;50.422;14.912;2022-08-19T07:03:53;98501.63;;;24.46;67.63
66627;BME280;53498;50.422;14.912;2022-08-19T07:06:19;98499.28;;;24.41;68.11
66627;BME280;53498;50.422;14.912;2022-08-19T07:08:46;98505.06;;;24.48;67.66
66627;BME280;53498;50.422;14.912;2022-08-19T07:11:15;98519.13;;;24.63;66.90
66627;BME280;53498;50.422;14.912;2022-08-19T07:13:42;98502.25;;;24.64;66.82
66627;BME280;53498;50.422;14.912;2022-08-19T07:16:12;98498.03;;;24.87;66.04
66627;BME280;53498;50.422;14.912;2022-08-19T07:18:38;98507.06;;;24.97;65.58
66627;BME280;53498;50.422;14.912;2022-08-19T07:21:13;98511.09;;;24.77;65.98
66627;BME280;53498;50.422;14.912;2022-08-19T07:23:40;98509.91;;;24.81;65.34
66627;BME280;53498;50.422;14.912;2022-08-19T07:26:08;98524.97;;;24.95;65.43
66627;BME280;53498;50.422;14.912;2022-08-19T07:28:35;98531.91;;;25.10;64.55
66627;BME280;53498;50.422;14.912;2022-08-19T07:31:16;98520.16;;;25.00;65.26
66627;BME280;53498;50.422;14.912;2022-08-19T07:33:44;98525.25;;;25.18;64.91
66627;BME280;53498;50.422;14.912;2022-08-19T07:36:12;98524.88;;;25.09;65.30
66627;BME280;53498;50.422;14.912;2022-08-19T07:38:40;98529.41;;;25.22;65.06
66627;BME280;53498;50.422;14.912;2022-08-19T07:41:09;98511.19;;;25.28;64.51
66627;BME280;53498;50.422;14.912;2022-08-19T07:43:35;98500.75;;;25.38;64.57
66627;BME280;53498;50.422;14.912;2022-08-19T07:46:00;98509.91;;;25.47;64.15
66627;BME280;53498;50.422;14.912;2022-08-19T07:48:27;98511.81;;;25.32;64.39
66627;BME280;53498;50.422;14.912;2022-08-19T07:51:00;98516.84;;;25.49;63.77
66627;BME280;53498;50.422;14.912;2022-08-19T07:53:30;98510.94;;;25.70;62.98
66627;BME280;53498;50.422;14.912;2022-08-19T07:55:57;98504.13;;;25.78;62.97
66627;BME280;53498;50.422;14.912;2022-08-19T07:58:34;98501.47;;;25.66;62.95
66627;BME280;53498;50.422;14.912;2022-08-19T08:01:01;98501.81;;;25.48;63.39
66627;BME280;53498;50.422;14.912;2022-08-19T08:03:28;98490.22;;;25.36;64.06
66627;BME280;53498;50.422;14.912;2022-08-19T08:06:24;98483.28;;;25.47;63.58
66627;BME280;53498;50.422;14.912;2022-08-19T08:09:12;98479.00;;;25.44;63.05
66627;BME280;53498;50.422;14.912;2022-08-19T08:11:45;98487.03;;;26.06;61.79
66627;BME280;53498;50.422;14.912;2022-08-19T08:14:24;98462.72;;;26.11;60.50
66627;BME280;53498;50.422;14.912;2022-08-19T08:16:51;98457.09;;;26.27;60.69
66627;BME280;53498;50.422;14.912;2022-08-19T08:19:19;98449.66;;;26.43;59.50
66627;BME280;53498;50.422;14.912;2022-08-19T08:21:45;98441.03;;;26.40;59.93
66627;BME280;53498;50.422;14.912;2022-08-19T08:24:11;98427.47;;;26.43;59.06
66627;BME280;53498;50.422;14.912;2022-08-19T08:26:37;98429.88;;;26.70;58.83
66627;BME280;53498;50.422;14.912;2022-08-19T08:29:03;98426.03;;;26.85;58.81
66627;BME280;53498;50.422;14.912;2022-08-19T08:31:28;98421.06;;;26.21;59.32
66627;BME280;53498;50.422;14.912;2022-08-19T08:33:54;98410.25;;;25.75;61.33
66627;BME280;53498;50.422;14.912;2022-08-19T08:36:20;98405.13;;;24.84;63.24
66627;BME280;53498;50.422;14.912;2022-08-19T08:38:45;98383.63;;;24.74;64.65
66627;BME280;53498;50.422;14.912;2022-08-19T08:41:36;98387.25;;;24.86;64.65
66627;BME280;53498;50.422;14.912;2022-08-19T08:44:28;98414.03;;;25.47;62.68
66627;BME280;53498;50.422;14.912;2022-08-19T08:47:01;98452.13;;;25.73;62.52
66627;BME280;53498;50.422;14.912;2022-08-19T08:49:39;98458.09;;;25.89;61.32
66627;BME280;53498;50.422;14.912;2022-08-19T08:52:20;98468.22;;;25.84;60.88
66627;BME280;53498;50.422;14.912;2022-08-19T08:54:49;98483.03;;;25.62;61.50
66627;BME280;53498;50.422;14.912;2022-08-19T08:57:49;98482.44;;;25.46;62.65
66627;BME280;53498;50.422;14.912;2022-08-19T09:00:27;98487.97;;;25.56;61.83
66627;BME280;53498;50.422;14.912;2022-08-19T09:02:54;98502.13;;;25.56;61.79
66627;BME280;53498;50.422;14.912;2022-08-19T09:05:21;98509.19;;;25.57;61.55
66627;BME280;53498;50.422;14.912;2022-08-19T09:08:02;98518.75;;;25.47;61.67
66627;BME280;53498;50.422;14.912;2022-08-19T09:10:44;98518.88;;;25.33;62.23
66627;BME280;53498;50.422;14.912;2022-08-19T09:13:26;98515.03;;;25.37;62.47
66627;BME280;53498;50.422;14.912;2022-08-19T09:16:11;98514.59;;;25.30;62.69
66627;BME280;53498;50.422;14.912;2022-08-19T09:18:47;98527.78;;;25.19;62.36
66627;BME280;53498;50.422;14.912;2022-08-19T09:21:15;98523.25;;;24.94;63.71
66627;BME280;53498;50.422;14.912;2022-08-19T09:23:40;98521.34;;;24.96;63.97
66627;BME280;53498;50.422;14.912;2022-08-19T09:26:14;98511.19;;;25.15;63.61
66627;BME280;53498;50.422;14.912;2022-08-19T09:28:42;98511.41;;;25.25;63.55
66627;BME280;53498;50.422;14.912;2022-08-19T09:31:13;98510.97;;;25.44;62.76
66627;BME280;53498;50.422;14.912;2022-08-19T09:33:39;98512.47;;;25.48;62.42
66627;BME280;53498;50.422;14.912;2022-08-19T09:36:11;98512.25;;;25.64;61.90
66627;BME280;53498;50.422;14.912;2022-08-19T09:38:38;98514.34;;;25.72;61.50
66627;BME280;53498;50.422;14.912;2022-08-19T09:41:14;98518.41;;;25.77;61.61
66627;BME280;53498;50.422;14.912;2022-08-19T09:43:42;98518.00;;;25.71;61.49
66627;BME280;53498;50.422;14.912;2022-08-19T09:46:09;98507.88;;;25.89;61.90
66627;BME280;53498;50.422;14.912;2022-08-19T09:48:36;98515.00;;;25.88;61.00
66627;BME280;53498;50.422;14.912;2022-08-19T09:51:06;98518.31;;;25.66;61.41
66627;BME280;53498;50.422;14.912;2022-08-19T09:53:37;98527.59;;;25.73;60.97
66627;BME280;53498;50.422;14.912;2022-08-19T09:56:05;98520.75;;;25.82;60.85
66627;BME280;53498;50.422;14.912;2022-08-19T09:58:31;98527.16;;;25.92;60.94
66627;BME280;53498;50.422;14.912;2022-08-19T10:00:58;98526.59;;;26.00;61.17
66627;BME280;53498;50.422;14.912;2022-08-19T10:03:26;98527.19;;;26.16;60.48
66627;BME280;53498;50.422;14.912;2022-08-19T10:05:52;98532.06;;;25.98;60.53
66627;BME280;53498;50.422;14.912;2022-08-19T10:08:24;98533.03;;;25.84;60.46
66627;BME280;53498;50.422;14.912;2022-08-19T10:10:51;98532.88;;;26.12;60.79
66627;BME280;53498;50.422;14.912;2022-08-19T10:13:20;98531.91;;;26.13;60.17
66627;BME280;53498;50.422;14.912;2022-08-19T10:15:48;98522.59;;;26.18;60.25
66627;BME280;53498;50.422;14.912;2022-08-19T10:18:18;98534.03;;;26.44;59.69
66627;BME280;53498;50.422;14.912;2022-08-19T10:20:44;98532.19;;;26.21;59.12
66627;BME280;53498;50.422;14.912;2022-08-19T10:23:11;98540.78;;;25.75;60.41
66627;BME280;53498;50.422;14.912;2022-08-19T10:25:37;98548.56;;;25.91;61.02
66627;BME280;53498;50.422;14.912;2022-08-19T10:28:04;98533.13;;;25.96;60.27
66627;BME280;53498;50.422;14.912;2022-08-19T10:30:33;98535.31;;;26.15;59.71
66627;BME280;53498;50.422;14.912;2022-08-19T10:33:00;98531.31;;;25.71;60.51
66627;BME280;53498;50.422;14.912;2022-08-19T10:35:26;98519.97;;;26.05;60.00
66627;BME280;53498;50.422;14.912;2022-08-19T10:37:53;98526.78;;;26.10;59.76
66627;BME280;53498;50.422;14.912;2022-08-19T10:40:19;98537.56;;;26.08;59.17
66627;BME280;53498;50.422;14.912;2022-08-19T10:42:44;98539.94;;;25.87;60.53
66627;BME280;53498;50.422;14.912;2022-08-19T10:45:10;98530.00;;;26.02;59.21
66627;BME280;53498;50.422;14.912;2022-08-19T10:47:36;98533.97;;;26.33;59.85
66627;BME280;53498;50.422;14.912;2022-08-19T10:50:02;98545.91;;;26.88;58.06
66627;BME280;53498;50.422;14.912;2022-08-19T10:52:49;98540.59;;;27.24;57.36
66627;BME280;53498;50.422;14.912;2022-08-19T10:55:15;98539.34;;;27.16;56.35
66627;BME280;53498;50.422;14.912;2022-08-19T10:57:59;98535.41;;;27.09;56.23
66627;BME280;53498;50.422;14.912;2022-08-19T11:00:25;98529.00;;;26.52;57.17
66627;BME280;53498;50.422;14.912;2022-08-19T11:02:51;98525.00;;;25.97;57.97
66627;BME280;53498;50.422;14.912;2022-08-19T11:05:18;98528.22;;;25.77;59.24
66627;BME280;53498;50.422;14.912;2022-08-19T11:07:44;98526.81;;;25.97;59.13
66627;BME280;53498;50.422;14.912;2022-08-19T11:10:13;98530.19;;;26.12;58.73
66627;BME280;53498;50.422;14.912;2022-08-19T11:12:40;98533.59;;;26.50;58.45
66627;BME280;53498;50.422;14.912;2022-08-19T11:15:07;98540.09;;;26.94;56.44
66627;BME280;53498;50.422;14.912;2022-08-19T11:17:34;98539.31;;;27.05;56.84
66627;BME280;53498;50.422;14.912;2022-08-19T11:20:04;98536.25;;;27.10;55.74
66627;BME280;53498;50.422;14.912;2022-08-19T11:22:30;98538.41;;;26.93;56.01
66627;BME280;53498;50.422;14.912;2022-08-19T11:24:56;98529.53;;;26.58;55.94
66627;BME280;53498;50.422;14.912;2022-08-19T11:27:21;98524.88;;;26.48;56.07
66627;BME280;53498;50.422;14.912;2022-08-19T11:29:47;98518.22;;;26.54;56.75
66627;BME280;53498;50.422;14.912;2022-08-19T11:32:12;98515.78;;;26.75;56.48
66627;BME280;53498;50.422;14.912;2022-08-19T11:34:39;98510.44;;;26.75;56.21
66627;BME280;53498;50.422;14.912;2022-08-19T11:37:05;98514.47;;;26.81;55.85
66627;BME280;53498;50.422;14.912;2022-08-19T11:39:32;98516.63;;;27.11;55.30
66627;BME280;53498;50.422;14.912;2022-08-19T11:41:58;98517.13;;;27.16;54.42
66627;BME280;53498;50.422;14.912;2022-08-19T11:44:25;98519.25;;;26.99;54.96
66627;BME280;53498;50.422;14.912;2022-08-19T11:46:51;98523.97;;;26.96;54.87
66627;BME280;53498;50.422;14.912;2022-08-19T11:49:19;98514.47;;;27.16;55.11
66627;BME280;53498;50.422;14.912;2022-08-19T11:51:46;98511.31;;;27.22;54.06
66627;BME280;53498;50.422;14.912;2022-08-19T11:54:13;98515.38;;;27.04;55.22
66627;BME280;53498;50.422;14.912;2022-08-19T11:56:39;98519.66;;;26.82;55.67
66627;BME280;53498;50.422;14.912;2022-08-19T11:59:06;98508.66;;;26.87;55.45
66627;BME280;53498;50.422;14.912;2022-08-19T12:01:33;98510.28;;;26.65;55.30
66627;BME280;53498;50.422;14.912;2022-08-19T12:03:59;98508.69;;;26.26;56.77
66627;BME280;53498;50.422;14.912;2022-08-19T12:06:28;98506.16;;;26.61;55.31
66627;BME280;53498;50.422;14.912;2022-08-19T12:08:55;98516.47;;;26.66;55.64
66627;BME280;53498;50.422;14.912;2022-08-19T12:11:22;98510.94;;;26.80;55.34
66627;BME280;53498;50.422;14.912;2022-08-19T12:13:49;98503.88;;;26.68;55.27
66627;BME280;53498;50.422;14.912;2022-08-19T12:16:19;98497.75;;;26.55;55.31
66627;BME280;53498;50.422;14.912;2022-08-19T12:18:45;98495.94;;;26.18;56.28
66627;BME280;53498;50.422;14.912;2022-08-19T12:21:13;98490.34;;;26.34;56.75
66627;BME280;53498;50.422;14.912;2022-08-19T12:23:40;98497.78;;;26.66;56.02
66627;BME280;53498;50.422;14.912;2022-08-19T12:26:06;98494.56;;;26.73;55.05
66627;BME280;53498;50.422;14.912;2022-08-19T12:28:32;98486.34;;;26.88;55.27
66627;BME280;53498;50.422;14.912;2022-08-19T12:30:58;98481.28;;;26.61;55.34
66627;BME280;53498;50.422;14.912;2022-08-19T12:33:23;98474.75;;;26.76;55.95
66627;BME280;53498;50.422;14.912;2022-08-19T12:35:52;98479.41;;;26.85;55.22
66627;BME280;53498;50.422;14.912;2022-08-19T12:38:18;98469.53;;;26.39;55.61
66627;BME280;53498;50.422;14.912;2022-08-19T12:40:48;98468.94;;;26.23;56.11
66627;BME280;53498;50.422;14.912;2022-08-19T12:43:16;98475.22;;;26.59;56.06
66627;BME280;53498;50.422;14.912;2022-08-19T12:45:45;98482.94;;;26.86;55.64
66627;BME280;53498;50.422;14.912;2022-08-19T12:48:11;98478.59;;;26.96;54.69
66627;BME280;53498;50.422;14.912;2022-08-19T12:50:42;98481.38;;;26.94;54.42
66627;BME280;53498;50.422;14.912;2022-08-19T12:53:08;98478.22;;;27.00;55.31
66627;BME280;53498;50.422;14.912;2022-08-19T12:55:34;98475.78;;;27.21;54.35
66627;BME280;53498;50.422;14.912;2022-08-19T12:58:00;98472.00;;;27.24;53.86